Latest Weather Observations for Clare

IDS60801

Issued at 8:35 pm CST Tuesday 2 September 2014 (issued every 30 minutes, with the page automatically refreshed every 10 minutes)

About weather observations | Map of weather stations | Latest weather observations for SA | Other Formats
Station Details ID: 021131 Name: CLARE HIGH SCHOOL Lat: -33.82 Lon: 138.59 Height: 395.0 m
Data from the previous 72 hours. | See also: Recent months at Clare
Date/Time
CST
Temp
°C
App
Temp
°C
Dew
Point
Rel
Hum
%
Delta-T
°C
Wind Press
QNH
hPa
Press
MSL
hPa
Rain
since 9 am
mm
Dir
 
Spd
km/h
Gust
km/h
Spd
kts
Gust
kts
02/08:30pm 7.0 4.7 5.6 91 0.6 SE 7 11 4 6 1026.2 - 0.0
02/08:00pm 7.4 4.8 6.0 91 0.6 S 9 13 5 7 1026.2 - 0.0
02/07:30pm 7.6 5.3 5.9 89 0.8 S 7 9 4 5 1026.2 - 0.0
02/07:00pm 8.1 6.0 5.9 86 1.0 S 6 9 3 5 1025.7 - 0.0
02/06:30pm 9.2 6.3 6.3 82 1.4 SSW 11 17 6 9 1025.6 - 0.0
02/06:00pm 9.9 6.6 6.6 80 1.6 S 13 20 7 11 1025.1 1025.3 0.0
02/05:30pm 10.7 7.0 6.5 75 2.0 SSW 15 22 8 12 1025.0 - 0.0
02/05:00pm 11.1 7.8 6.6 74 2.2 SSW 13 20 7 11 1024.8 - 0.0
02/04:30pm 11.7 8.4 6.4 70 2.6 SSW 13 20 7 11 1024.6 - 0.0
02/04:00pm 11.2 7.1 6.3 72 2.4 SSW 17 22 9 12 1024.3 - 0.0
02/03:30pm 12.3 8.6 6.1 66 3.0 SSW 15 26 8 14 1024.1 - 0.0
02/03:00pm 12.3 8.6 6.4 67 2.8 SSW 15 20 8 11 1024.1 1024.2 0.0
02/02:30pm 12.2 8.2 6.5 68 2.8 S 17 28 9 15 1024.2 - 0.0
02/02:00pm 11.8 8.4 5.9 67 2.8 SW 13 19 7 10 1024.3 - 0.0
02/01:30pm 11.6 7.6 4.8 63 3.2 S 15 24 8 13 1024.3 - 0.0
02/01:00pm 11.3 7.5 6.0 70 2.5 SSW 15 24 8 13 1024.6 - 0.0
02/12:30pm 11.7 8.4 6.2 69 2.6 S 13 20 7 11 1024.7 - 0.0
02/12:00pm 11.6 7.4 5.7 67 2.8 S 17 30 9 16 1024.7 1024.8 0.0
02/11:30am 10.8 6.8 4.9 67 2.7 S 15 24 8 13 1024.8 - 0.0
02/11:00am 10.1 6.8 6.6 79 1.7 SSW 13 20 7 11 1025.0 - 0.0
02/10:30am 9.3 5.2 6.0 80 1.5 SSW 17 24 9 13 1024.9 - 0.0
02/10:00am 9.1 5.1 6.5 84 1.2 S 17 28 9 15 1024.8 - 0.0
02/09:30am 8.3 5.0 6.6 89 0.8 S 13 22 7 12 1024.9 - 0.0
02/09:00am 7.8 4.9 6.3 90 0.7 SSW 11 19 6 10 1025.0 1025.2 6.4
02/08:30am 7.4 4.2 6.8 96 0.3 S 13 22 7 12 1024.6 - 6.4
02/08:00am 5.9 3.6 5.9 100 0.0 S 7 17 4 9 1024.3 - 6.4
02/07:30am 5.7 2.6 5.6 99 0.0 SW 11 17 6 9 1023.9 - 6.4
02/07:00am 5.5 3.7 5.4 99 0.0 SSW 4 9 2 5 1023.6 - 6.4
02/06:30am 5.3 2.5 5.2 99 0.0 SSW 9 15 5 8 1023.0 - 6.4
02/06:00am 4.9 2.4 4.8 99 0.0 SSW 7 15 4 8 1022.6 1022.8 6.4
02/05:30am 4.7 1.8 4.6 99 0.0 SSW 9 17 5 9 1022.1 - 6.4
02/05:00am 4.7 1.8 4.6 99 0.0 SW 9 17 5 9 1021.9 - 6.4
02/04:30am 4.4 1.4 4.3 99 0.0 SW 9 17 5 9 1021.3 - 6.4
02/04:00am 4.5 1.5 4.2 98 0.1 SW 9 13 5 7 1021.1 - 6.4
02/03:30am 4.6 1.2 4.2 97 0.2 SSW 11 19 6 10 1020.7 - 6.4
02/03:00am 4.6 0.9 4.2 97 0.2 SW 13 22 7 12 1020.7 1020.8 6.4
02/02:30am 4.5 1.5 4.1 97 0.2 SW 9 17 5 9 1020.6 - 6.4
02/02:00am 4.4 1.0 3.8 96 0.3 WSW 11 17 6 9 1020.6 - 6.4
02/01:30am 4.5 1.4 3.8 95 0.3 SSW 9 17 5 9 1020.3 - 6.4
02/01:00am 4.8 1.4 4.2 96 0.3 WSW 11 20 6 11 1020.4 - 6.4
02/12:30am 4.9 1.6 4.6 98 0.1 WSW 11 17 6 9 1020.2 - 6.4
02/12:00am 4.8 1.5 4.5 98 0.1 SW 11 19 6 10 1020.1 1020.2 6.4
 
Date/Time
CST
Temp
°C
App
Temp
°C
Dew
Point
Rel
Hum
%
Delta-T
°C
Wind Press
QNH
hPa
Press
MSL
hPa
Rain
since 9 am
mm
Dir
 
Spd
km/h
Gust
km/h
Spd
kts
Gust
kts
01/11:30pm 4.9 1.6 4.5 97 0.2 WSW 11 20 6 11 1020.1 - 6.4
01/11:00pm 5.4 1.8 5.1 98 0.1 WSW 13 24 7 13 1019.9 - 6.4
01/10:30pm 5.5 1.6 5.4 99 0.0 SW 15 24 8 13 1019.8 - 6.4
01/10:00pm 5.9 2.5 5.8 99 0.0 SW 13 20 7 11 1019.5 - 6.4
01/09:30pm 6.2 3.6 5.9 98 0.1 WSW 9 20 5 11 1019.3 - 6.4
01/09:00pm 6.1 3.0 5.5 96 0.3 SW 11 26 6 14 1019.0 1019.1 6.4
01/08:30pm 7.2 3.4 6.0 92 0.6 WSW 15 37 8 20 1018.7 - 6.2
01/08:00pm 7.3 3.2 6.4 94 0.4 WSW 17 28 9 15 1018.4 - 6.0
01/07:30pm 7.7 4.4 6.5 92 0.6 WSW 13 20 7 11 1017.8 - 6.0
01/07:00pm 8.2 5.0 6.7 90 0.7 WSW 13 24 7 13 1017.5 - 5.8
01/06:30pm 9.0 5.3 6.3 83 1.3 WSW 15 26 8 14 1017.1 - 5.6
01/06:00pm 9.2 5.2 6.8 85 1.1 WSW 17 28 9 15 1016.7 1016.8 5.6
01/05:30pm 9.5 5.6 7.3 86 1.1 WSW 17 24 9 13 1016.2 - 5.6
01/05:00pm 9.7 6.2 7.1 84 1.3 WSW 15 24 8 13 1015.7 - 5.6
01/04:30pm 10.4 6.2 7.6 83 1.4 SSW 19 30 10 16 1015.4 - 5.4
01/04:00pm 11.9 8.7 8.6 80 1.7 SW 15 26 8 14 1014.9 - 5.2
01/03:30pm 11.0 7.1 8.6 85 1.2 SSW 19 37 10 20 1014.8 - 5.2
01/03:00pm 12.0 8.7 9.7 86 1.2 SW 17 30 9 16 1014.2 1014.3 5.2
01/02:30pm 11.5 8.0 8.9 84 1.3 SW 17 33 9 18 1014.0 - 4.4
01/02:00pm 12.5 9.8 10.2 86 1.2 WSW 15 30 8 16 1013.9 - 4.4
01/01:30pm 11.1 8.9 10.9 99 0.1 SW 13 20 7 11 1014.0 - 4.4
01/01:00pm 11.1 8.1 9.4 89 0.9 WSW 15 24 8 13 1014.1 - 2.6
01/12:30pm 11.0 7.7 9.6 91 0.7 SW 17 26 9 14 1014.4 - 2.6
01/12:00pm 10.0 7.4 9.4 96 0.3 SW 13 24 7 13 1014.8 1014.9 2.6
01/11:30am 9.2 6.2 9.1 99 0.1 SW 15 24 8 13 1014.8 - 2.6
01/11:00am 9.1 6.0 9.0 99 0.1 SW 15 30 8 16 1014.8 - 2.6
01/10:30am 9.3 5.9 9.3 100 0.0 SW 17 32 9 17 1014.7 - 2.0
01/10:00am 10.1 7.7 9.9 99 0.1 W 13 20 7 11 1014.2 - 1.2
01/09:30am 10.0 7.1 9.5 97 0.3 W 15 28 8 15 1014.2 - 0.0
01/09:00am 9.9 7.5 9.9 100 0.0 W 13 22 7 12 1014.1 1014.2 2.6
01/08:30am 9.6 - 9.7 - - W 9 19 5 10 1013.6 - 2.6
01/08:00am 9.5 7.7 9.5 100 0.0 W 9 11 5 6 1013.6 - 2.6
01/07:30am 9.3 7.5 9.3 100 0.0 WNW 9 15 5 8 1014.2 - 2.6
01/07:00am 9.1 7.2 9.1 100 0.0 W 9 13 5 7 1013.9 - 2.4
01/06:30am 9.0 6.7 9.0 100 0.0 WSW 11 19 6 10 1013.1 - 2.0
01/06:00am 8.8 6.4 8.8 100 0.0 SW 11 17 6 9 1012.8 1012.8 2.0
01/05:30am 9.0 7.1 9.0 100 0.0 SW 9 17 5 9 1012.2 - 1.6
01/05:00am 9.2 7.0 9.2 100 0.0 SW 11 17 6 9 1012.4 - 1.0
01/04:30am 9.2 7.0 9.2 100 0.0 SW 11 20 6 11 1012.2 - 1.0
01/04:00am 9.3 7.5 9.3 100 0.0 SW 9 17 5 9 1012.0 - 0.8
01/03:30am 9.7 6.8 9.7 100 0.0 WSW 15 24 8 13 1012.6 - 0.4
01/03:00am 10.3 7.9 10.1 99 0.1 WSW 13 26 7 14 1012.1 1012.2 0.0
01/02:30am 10.9 9.8 10.6 98 0.2 W 7 9 4 5 1011.3 - 0.0
01/02:00am 10.5 9.8 10.0 97 0.3 W 4 6 2 3 1011.3 - 0.0
01/01:30am 10.9 9.7 10.3 96 0.3 WSW 7 11 4 6 1012.0 - 0.0
01/01:00am 10.9 9.6 10.1 95 0.4 WSW 7 19 4 10 1012.4 - 0.0
01/12:30am 11.0 9.4 10.2 95 0.4 SW 9 17 5 9 1012.8 - 0.0
01/12:00am 11.4 10.2 10.3 93 0.6 S 7 13 4 7 1012.3 1012.4 0.0
 
Date/Time
CST
Temp
°C
App
Temp
°C
Dew
Point
Rel
Hum
%
Delta-T
°C
Wind Press
QNH
hPa
Press
MSL
hPa
Rain
since 9 am
mm
Dir
 
Spd
km/h
Gust
km/h
Spd
kts
Gust
kts
31/11:30pm 11.3 9.4 9.2 87 1.1 SW 9 19 5 10 1012.7 - 0.0
31/11:00pm 12.2 7.9 6.9 70 2.6 SSW 19 33 10 18 1011.9 - 0.0
31/10:30pm 11.9 9.8 3.9 58 3.7 WSW 4 7 2 4 1011.9 - 0.0
31/10:00pm 10.9 9.7 4.6 65 2.9 CALM 0 0 0 0 1011.7 - 0.0
31/09:30pm 11.3 10.0 4.1 61 3.3 CALM 0 0 0 0 1011.9 - 0.0
31/09:00pm 12.3 10.7 4.5 59 3.6 WNW 2 9 1 5 1012.1 1012.5 0.0
31/08:30pm 14.4 12.2 3.5 48 5.0 N 4 7 2 4 1011.7 - 0.0
31/08:00pm 15.1 13.8 4.2 48 5.2 CALM 0 0 0 0 1011.9 - 0.0
31/07:30pm 16.2 13.7 3.9 44 5.8 N 6 17 3 9 1011.6 - 0.0
31/07:00pm 16.7 14.3 4.4 44 5.9 NNE 6 13 3 7 1011.9 - 0.0
31/06:30pm 16.1 13.9 5.4 49 5.2 NNW 6 9 3 5 1012.3 - 0.0
31/06:00pm 17.2 13.8 4.2 42 6.2 NNE 11 17 6 9 1011.9 1012.3 0.0
31/05:30pm 17.5 14.2 4.8 43 6.2 NNE 11 15 6 8 1011.9 - 0.0
31/05:00pm 18.1 15.3 5.3 43 6.3 N 9 17 5 9 1012.0 - 0.0
31/04:30pm 18.9 14.9 4.7 39 7.0 N 15 20 8 11 1011.7 - 0.0
31/04:00pm 20.2 16.1 4.3 35 7.8 N 15 28 8 15 1011.8 - 0.0
31/03:30pm 19.9 16.9 5.9 40 7.1 N 11 19 6 10 1012.6 - 0.0
31/03:00pm 19.2 16.1 5.6 41 6.8 NNW 11 17 6 9 1013.0 1013.3 0.0
31/02:30pm 19.5 16.4 5.6 40 7.0 N 11 19 6 10 1013.3 - 0.0
31/02:00pm 20.1 14.1 3.3 33 8.1 NNW 24 33 13 18 1013.7 - 0.0
31/01:30pm 20.7 15.6 4.3 34 8.1 N 20 30 11 16 1013.9 - 0.0
31/01:00pm 19.1 15.2 5.2 40 6.9 NNW 15 24 8 13 1014.4 - 0.0
31/12:30pm 20.0 14.1 3.7 34 7.9 NNW 24 35 13 19 1015.1 - 0.0
31/12:00pm 19.7 12.6 3.4 34 7.8 NNW 30 43 16 23 1015.8 1016.2 0.0
31/11:30am 19.7 14.0 5.0 38 7.3 NNW 24 35 13 19 1015.9 - 0.0
31/11:00am 16.8 12.6 5.7 48 5.5 NNW 17 28 9 15 1016.7 - 0.0
31/10:30am 15.7 12.8 6.4 54 4.6 N 11 19 6 10 1016.9 - 0.0
31/10:00am 13.2 10.1 5.4 59 3.7 N 11 19 6 10 1017.3 - 0.0
31/09:30am 12.4 9.2 5.3 62 3.4 NNW 11 19 6 10 1017.5 - 0.0
31/09:00am 11.0 9.5 4.9 66 2.8 NW 2 11 1 6 1017.6 1018.0 0.0
31/08:30am 10.3 9.1 4.7 68 2.6 CALM 0 6 0 3 1017.6 - 0.0
31/08:00am 10.0 8.6 5.6 74 2.1 N 2 7 1 4 1017.5 - 0.0
31/07:30am 7.2 5.8 3.8 79 1.5 CALM 0 0 0 0 1017.7 - 0.0
31/07:00am 6.4 4.8 2.5 76 1.6 CALM 0 2 0 1 1017.6 - 0.0
31/06:30am 6.5 4.9 2.4 75 1.7 CALM 0 0 0 0 1017.2 - 0.0
31/06:00am 6.0 4.4 2.3 77 1.5 CALM 0 0 0 0 1016.7 1017.1 0.0
31/05:30am 6.7 5.0 2.0 72 2.0 CALM 0 0 0 0 1016.6 - 0.0
31/05:00am 6.8 4.4 2.1 72 2.0 WNW 4 7 2 4 1016.7 - 0.0
31/04:30am 7.7 4.7 2.2 68 2.3 NW 7 9 4 5 1016.6 - 0.0
31/04:00am 8.2 5.4 2.2 66 2.6 N 6 9 3 5 1016.6 - 0.0
31/03:30am 5.7 4.1 2.5 80 1.3 CALM 0 6 0 3 1016.9 - 0.0
31/03:00am 5.0 3.6 3.5 90 0.6 CALM 0 0 0 0 1017.3 1017.7 0.0
31/02:30am 5.4 3.9 3.1 85 1.0 CALM 0 0 0 0 1017.7 - 0.0
31/02:00am 5.9 4.6 3.9 87 0.9 CALM 0 0 0 0 1018.1 - 0.0
31/01:30am 5.7 4.4 4.3 91 0.6 CALM 0 0 0 0 1018.2 - 0.0
31/01:00am 5.5 4.2 4.2 91 0.6 CALM 0 0 0 0 1018.3 - 0.0
31/12:30am 5.4 4.1 4.1 91 0.6 CALM 0 0 0 0 1018.7 - 0.0
31/12:00am 5.4 4.1 4.2 92 0.5 CALM 0 0 0 0 1019.1 1019.5 0.0
 
Date/Time
CST
Temp
°C
App
Temp
°C
Dew
Point
Rel
Hum
%
Delta-T
°C
Wind Press
QNH
hPa
Press
MSL
hPa
Rain
since 9 am
mm
Dir
 
Spd
km/h
Gust
km/h
Spd
kts
Gust
kts
30/11:30pm 5.5 4.2 4.2 91 0.6 CALM 0 0 0 0 1019.2 - 0.0
30/11:00pm 6.3 5.1 4.8 90 0.7 CALM 0 0 0 0 1019.5 - 0.0
30/10:30pm 6.7 5.6 5.2 90 0.7 CALM 0 0 0 0 1019.6 - 0.0
30/10:00pm 7.5 6.4 5.3 86 1.0 CALM 0 0 0 0 1019.9 - 0.0
30/09:30pm 8.2 7.3 6.0 86 1.0 CALM 0 6 0 3 1020.1 - 0.0
30/09:00pm 8.5 7.5 5.8 83 1.3 CALM 0 0 0 0 1020.1 1020.6 0.0

Other Formats:

Comma delimited format used in spreadsheet applications
http://www.bom.gov.au/fwo/IDS60801/IDS60801.95667.axf

JavaScript Object Notation format (JSON) in row-major order
http://www.bom.gov.au/fwo/IDS60801/IDS60801.95667.json